sensor_id;sensor_type;location;lat;lon;timestamp;pressure;altitude;pressure_sealevel;temperature;humidity
8637;BME280;4356;49.068;8.658;2023-07-31T00:01:42;99910.50;;;25.38;45.14
8637;BME280;4356;49.068;8.658;2023-07-31T00:04:07;99916.84;;;25.39;45.11
8637;BME280;4356;49.068;8.658;2023-07-31T00:06:32;99910.25;;;25.40;45.17
8637;BME280;4356;49.068;8.658;2023-07-31T00:08:58;99906.09;;;25.37;45.49
8637;BME280;4356;49.068;8.658;2023-07-31T00:11:23;99901.66;;;25.36;45.31
8637;BME280;4356;49.068;8.658;2023-07-31T00:13:48;99903.59;;;25.36;45.55
8637;BME280;4356;49.068;8.658;2023-07-31T00:16:14;99909.09;;;25.36;45.25
8637;BME280;4356;49.068;8.658;2023-07-31T00:18:39;99900.81;;;25.31;45.38
8637;BME280;4356;49.068;8.658;2023-07-31T00:21:05;99910.44;;;25.33;45.43
8637;BME280;4356;49.068;8.658;2023-07-31T00:23:30;99918.69;;;25.33;45.56
8637;BME280;4356;49.068;8.658;2023-07-31T00:25:55;99905.50;;;25.30;45.43
8637;BME280;4356;49.068;8.658;2023-07-31T00:28:21;99909.63;;;25.33;45.27
8637;BME280;4356;49.068;8.658;2023-07-31T00:30:46;99901.91;;;25.30;45.54
8637;BME280;4356;49.068;8.658;2023-07-31T00:33:11;99890.06;;;25.29;45.40
8637;BME280;4356;49.068;8.658;2023-07-31T00:35:37;99893.66;;;25.30;45.54
8637;BME280;4356;49.068;8.658;2023-07-31T00:38:02;99890.34;;;25.28;45.48
8637;BME280;4356;49.068;8.658;2023-07-31T00:40:28;99882.34;;;25.21;45.64
8637;BME280;4356;49.068;8.658;2023-07-31T00:42:53;99888.69;;;25.27;45.40
8637;BME280;4356;49.068;8.658;2023-07-31T00:45:18;99889.50;;;25.27;45.57
8637;BME280;4356;49.068;8.658;2023-07-31T00:47:44;99889.78;;;25.26;45.61
8637;BME280;4356;49.068;8.658;2023-07-31T00:50:09;99882.91;;;25.23;45.57
8637;BME280;4356;49.068;8.658;2023-07-31T00:52:35;99892.53;;;25.26;45.74
8637;BME280;4356;49.068;8.658;2023-07-31T00:55:01;99883.19;;;25.22;45.81
8637;BME280;4356;49.068;8.658;2023-07-31T00:57:27;99882.34;;;25.21;45.75
8637;BME280;4356;49.068;8.658;2023-07-31T00:59:52;99880.44;;;25.22;45.54
8637;BME280;4356;49.068;8.658;2023-07-31T01:02:17;99856.94;;;25.09;45.59
8637;BME280;4356;49.068;8.658;2023-07-31T01:04:43;99874.09;;;25.21;45.49
8637;BME280;4356;49.068;8.658;2023-07-31T01:10:16;99860.03;;;25.18;45.16
8637;BME280;4356;49.068;8.658;2023-07-31T01:12:46;99862.22;;;25.16;45.55
8637;BME280;4356;49.068;8.658;2023-07-31T01:15:13;99860.84;;;25.18;45.32
8637;BME280;4356;49.068;8.658;2023-07-31T01:17:41;99859.19;;;25.12;45.33
8637;BME280;4356;49.068;8.658;2023-07-31T01:20:12;99864.97;;;25.16;45.24
8637;BME280;4356;49.068;8.658;2023-07-31T01:28:29;99863.28;;;25.10;45.26
8637;BME280;4356;49.068;8.658;2023-07-31T01:30:58;99862.22;;;25.11;45.27
8637;BME280;4356;49.068;8.658;2023-07-31T01:33:25;99864.97;;;25.11;45.45
8637;BME280;4356;49.068;8.658;2023-07-31T01:35:51;99855.31;;;25.08;45.36
8637;BME280;4356;49.068;8.658;2023-07-31T01:38:20;99850.38;;;25.10;45.39
8637;BME280;4356;49.068;8.658;2023-07-31T01:40:51;99857.78;;;25.10;45.61
8637;BME280;4356;49.068;8.658;2023-07-31T01:43:17;99850.63;;;25.09;45.66
8637;BME280;4356;49.068;8.658;2023-07-31T01:45:42;99841.56;;;25.08;45.26
8637;BME280;4356;49.068;8.658;2023-07-31T01:48:07;99840.16;;;25.06;45.40
8637;BME280;4356;49.068;8.658;2023-07-31T01:50:33;99825.31;;;25.02;45.51
8637;BME280;4356;49.068;8.658;2023-07-31T01:52:58;99832.19;;;25.04;45.60
8637;BME280;4356;49.068;8.658;2023-07-31T01:55:23;99826.94;;;25.03;45.51
8637;BME280;4356;49.068;8.658;2023-07-31T01:57:49;99834.66;;;25.06;45.53
8637;BME280;4356;49.068;8.658;2023-07-31T02:00:14;99831.63;;;25.02;45.56
8637;BME280;4356;49.068;8.658;2023-07-31T02:02:39;99826.13;;;25.02;45.48
8637;BME280;4356;49.068;8.658;2023-07-31T02:05:05;99814.81;;;24.99;45.32
8637;BME280;4356;49.068;8.658;2023-07-31T02:07:30;99819.25;;;25.00;45.63
8637;BME280;4356;49.068;8.658;2023-07-31T02:09:56;99822.00;;;25.00;45.59
8637;BME280;4356;49.068;8.658;2023-07-31T02:12:21;99822.00;;;25.00;45.73
8637;BME280;4356;49.068;8.658;2023-07-31T02:14:47;99812.34;;;24.97;45.65
8637;BME280;4356;49.068;8.658;2023-07-31T02:17:12;99805.22;;;24.96;45.52
8637;BME280;4356;49.068;8.658;2023-07-31T02:19:37;99803.03;;;24.98;45.63
8637;BME280;4356;49.068;8.658;2023-07-31T02:22:03;99790.91;;;24.94;45.53
8637;BME280;4356;49.068;8.658;2023-07-31T02:24:28;99793.38;;;24.96;45.84
8637;BME280;4356;49.068;8.658;2023-07-31T02:26:57;99794.44;;;24.95;45.68
8637;BME280;4356;49.068;8.658;2023-07-31T02:29:22;99787.28;;;24.89;45.85
8637;BME280;4356;49.068;8.658;2023-07-31T02:31:47;99792.53;;;24.95;46.03
8637;BME280;4356;49.068;8.658;2023-07-31T02:34:13;99776.81;;;24.86;45.95
8637;BME280;4356;49.068;8.658;2023-07-31T02:36:38;99796.09;;;24.91;46.09
8637;BME280;4356;49.068;8.658;2023-07-31T02:39:04;99794.16;;;24.91;45.79
8637;BME280;4356;49.068;8.658;2023-07-31T02:41:29;99787.28;;;24.89;46.01
8637;BME280;4356;49.068;8.658;2023-07-31T02:43:54;99805.16;;;24.91;45.67
8637;BME280;4356;49.068;8.658;2023-07-31T02:46:20;99779.81;;;24.84;46.00
8637;BME280;4356;49.068;8.658;2023-07-31T02:48:45;99798.00;;;24.90;45.83
8637;BME280;4356;49.068;8.658;2023-07-31T02:51:10;99791.94;;;24.88;45.79
8637;BME280;4356;49.068;8.658;2023-07-31T02:53:36;99791.13;;;24.88;45.78
8637;BME280;4356;49.068;8.658;2023-07-31T02:56:01;99797.16;;;24.85;45.91
8637;BME280;4356;49.068;8.658;2023-07-31T02:58:26;99796.31;;;24.84;45.73
8637;BME280;4356;49.068;8.658;2023-07-31T03:00:52;99798.00;;;24.85;45.56
8637;BME280;4356;49.068;8.658;2023-07-31T03:03:17;99802.66;;;24.85;45.73
8637;BME280;4356;49.068;8.658;2023-07-31T03:05:42;99801.81;;;24.84;45.88
8637;BME280;4356;49.068;8.658;2023-07-31T03:08:08;99796.31;;;24.84;45.77
8637;BME280;4356;49.068;8.658;2023-07-31T03:10:33;99803.75;;;24.84;45.90
8637;BME280;4356;49.068;8.658;2023-07-31T03:12:58;99798.50;;;24.82;45.84
8637;BME280;4356;49.068;8.658;2023-07-31T03:15:24;99800.97;;;24.79;45.81
8637;BME280;4356;49.068;8.658;2023-07-31T03:17:49;99783.88;;;24.72;45.81
8637;BME280;4356;49.068;8.658;2023-07-31T03:20:14;99793.22;;;24.71;45.86
8637;BME280;4356;49.068;8.658;2023-07-31T03:22:40;99803.97;;;24.77;45.71
8637;BME280;4356;49.068;8.658;2023-07-31T03:25:05;99807.56;;;24.78;45.92
8637;BME280;4356;49.068;8.658;2023-07-31T03:27:31;99807.00;;;24.76;45.96
8637;BME280;4356;49.068;8.658;2023-07-31T03:29:56;99794.34;;;24.75;45.73
8637;BME280;4356;49.068;8.658;2023-07-31T03:32:22;99797.66;;;24.77;45.92
8637;BME280;4356;49.068;8.658;2023-07-31T03:34:47;99778.59;;;24.65;46.00
8637;BME280;4356;49.068;8.658;2023-07-31T03:37:13;99778.38;;;24.72;45.98
8637;BME280;4356;49.068;8.658;2023-07-31T03:39:38;99791.84;;;24.73;46.03
8637;BME280;4356;49.068;8.658;2023-07-31T03:42:03;99795.44;;;24.74;45.95
8637;BME280;4356;49.068;8.658;2023-07-31T03:44:29;99790.78;;;24.74;45.98
8637;BME280;4356;49.068;8.658;2023-07-31T03:46:54;99803.13;;;24.72;45.94
8637;BME280;4356;49.068;8.658;2023-07-31T03:49:20;99800.38;;;24.72;45.99
8637;BME280;4356;49.068;8.658;2023-07-31T03:51:45;99793.16;;;24.66;46.11
8637;BME280;4356;49.068;8.658;2023-07-31T03:54:10;99804.16;;;24.66;46.06
8637;BME280;4356;49.068;8.658;2023-07-31T03:56:36;99798.41;;;24.67;46.24
8637;BME280;4356;49.068;8.658;2023-07-31T03:59:03;99796.44;;;24.68;46.01
8637;BME280;4356;49.068;8.658;2023-07-31T04:01:28;99783.50;;;24.58;46.01
8637;BME280;4356;49.068;8.658;2023-07-31T04:03:53;99790.66;;;24.64;46.18
8637;BME280;4356;49.068;8.658;2023-07-31T04:06:19;99795.09;;;24.65;46.27
8637;BME280;4356;49.068;8.658;2023-07-31T04:08:44;99807.72;;;24.66;46.06
8637;BME280;4356;49.068;8.658;2023-07-31T04:11:10;99803.31;;;24.65;46.15
8637;BME280;4356;49.068;8.658;2023-07-31T04:13:36;99790.38;;;24.61;45.92
8637;BME280;4356;49.068;8.658;2023-07-31T04:16:01;99798.09;;;24.64;46.47
8637;BME280;4356;49.068;8.658;2023-07-31T04:18:27;99801.91;;;24.63;46.12
8637;BME280;4356;49.068;8.658;2023-07-31T04:20:52;99807.41;;;24.63;46.16
8637;BME280;4356;49.068;8.658;2023-07-31T04:23:18;99796.13;;;24.59;45.99
8637;BME280;4356;49.068;8.658;2023-07-31T04:25:43;99798.88;;;24.59;46.04
8637;BME280;4356;49.068;8.658;2023-07-31T04:28:08;99792.81;;;24.57;46.33
8637;BME280;4356;49.068;8.658;2023-07-31T04:30:34;99789.25;;;24.57;46.15
8637;BME280;4356;49.068;8.658;2023-07-31T04:32:59;99798.59;;;24.61;45.92
8637;BME280;4356;49.068;8.658;2023-07-31T04:35:25;99798.59;;;24.61;46.02
8637;BME280;4356;49.068;8.658;2023-07-31T04:37:50;99788.16;;;24.58;46.09
8637;BME280;4356;49.068;8.658;2023-07-31T04:40:16;99792.53;;;24.59;45.85
8637;BME280;4356;49.068;8.658;2023-07-31T04:42:41;99768.59;;;24.49;46.11
8637;BME280;4356;49.068;8.658;2023-07-31T04:45:08;99779.91;;;24.58;45.98
8637;BME280;4356;49.068;8.658;2023-07-31T04:47:34;99771.94;;;24.56;45.83
8637;BME280;4356;49.068;8.658;2023-07-31T04:49:59;99761.16;;;24.49;46.17
8637;BME280;4356;49.068;8.658;2023-07-31T04:52:25;99770.53;;;24.54;46.15
8637;BME280;4356;49.068;8.658;2023-07-31T04:54:50;99781.25;;;24.55;46.15
8637;BME280;4356;49.068;8.658;2023-07-31T04:57:15;99781.25;;;24.55;45.88
8637;BME280;4356;49.068;8.658;2023-07-31T04:59:41;99765.56;;;24.45;45.99
8637;BME280;4356;49.068;8.658;2023-07-31T05:02:08;99777.97;;;24.53;46.09
8637;BME280;4356;49.068;8.658;2023-07-31T05:04:33;99781.25;;;24.55;46.04
8637;BME280;4356;49.068;8.658;2023-07-31T05:06:59;99780.44;;;24.55;46.03
8637;BME280;4356;49.068;8.658;2023-07-31T05:09:24;99778.50;;;24.55;45.97
8637;BME280;4356;49.068;8.658;2023-07-31T05:11:50;99781.78;;;24.52;46.50
8637;BME280;4356;49.068;8.658;2023-07-31T05:14:15;99777.13;;;24.53;46.06
8637;BME280;4356;49.068;8.658;2023-07-31T05:16:41;99782.63;;;24.53;45.85
8637;BME280;4356;49.068;8.658;2023-07-31T05:19:06;99780.44;;;24.55;46.09
8637;BME280;4356;49.068;8.658;2023-07-31T05:21:32;99781.25;;;24.55;46.00
8637;BME280;4356;49.068;8.658;2023-07-31T05:23:57;99772.72;;;24.52;46.07
8637;BME280;4356;49.068;8.658;2023-07-31T05:26:23;99777.44;;;24.56;46.14
8637;BME280;4356;49.068;8.658;2023-07-31T05:28:48;99769.66;;;24.48;46.10
8637;BME280;4356;49.068;8.658;2023-07-31T05:31:13;99762.81;;;24.45;45.93
8637;BME280;4356;49.068;8.658;2023-07-31T05:33:39;99776.03;;;24.54;45.98
8637;BME280;4356;49.068;8.658;2023-07-31T05:36:04;99778.50;;;24.55;46.01
8637;BME280;4356;49.068;8.658;2023-07-31T05:38:30;99778.50;;;24.55;46.06
8637;BME280;4356;49.068;8.658;2023-07-31T05:40:55;99776.59;;;24.56;45.95
8637;BME280;4356;49.068;8.658;2023-07-31T05:43:20;99774.41;;;24.53;45.50
8637;BME280;4356;49.068;8.658;2023-07-31T05:45:47;99774.41;;;24.53;45.06
8637;BME280;4356;49.068;8.658;2023-07-31T05:48:12;99775.16;;;24.48;44.20
8637;BME280;4356;49.068;8.658;2023-07-31T05:50:38;99779.84;;;24.48;44.06
8637;BME280;4356;49.068;8.658;2023-07-31T05:53:06;99775.44;;;24.46;43.98
8637;BME280;4356;49.068;8.658;2023-07-31T05:55:33;99769.91;;;24.41;43.65
8637;BME280;4356;49.068;8.658;2023-07-31T05:57:59;99770.44;;;24.38;43.72
8637;BME280;4356;49.068;8.658;2023-07-31T06:00:25;99770.13;;;24.35;43.25
8637;BME280;4356;49.068;8.658;2023-07-31T06:02:51;99772.06;;;24.34;43.14
8637;BME280;4356;49.068;8.658;2023-07-31T06:05:16;99770.09;;;24.30;43.08
8637;BME280;4356;49.068;8.658;2023-07-31T06:07:41;99773.69;;;24.30;42.97
8637;BME280;4356;49.068;8.658;2023-07-31T06:10:07;99765.97;;;24.27;42.91
8637;BME280;4356;49.068;8.658;2023-07-31T06:12:33;99767.59;;;24.23;42.55
8637;BME280;4356;49.068;8.658;2023-07-31T06:14:59;99771.41;;;24.22;42.34
8637;BME280;4356;49.068;8.658;2023-07-31T06:17:25;99772.25;;;24.23;42.35
8637;BME280;4356;49.068;8.658;2023-07-31T06:19:51;99764.53;;;24.20;42.41
8637;BME280;4356;49.068;8.658;2023-07-31T06:22:17;99777.44;;;24.19;42.49
8637;BME280;4356;49.068;8.658;2023-07-31T06:24:42;99771.38;;;24.17;42.49
8637;BME280;4356;49.068;8.658;2023-07-31T06:27:07;99760.34;;;24.12;42.57
8637;BME280;4356;49.068;8.658;2023-07-31T06:29:33;99761.19;;;24.13;42.36
8637;BME280;4356;49.068;8.658;2023-07-31T06:31:58;99767.44;;;24.08;42.40
8637;BME280;4356;49.068;8.658;2023-07-31T06:34:24;99771.34;;;24.12;42.44
8637;BME280;4356;49.068;8.658;2023-07-31T06:36:50;99768.84;;;24.11;42.55
8637;BME280;4356;49.068;8.658;2023-07-31T06:39:15;99763.63;;;24.09;42.56
8637;BME280;4356;49.068;8.658;2023-07-31T06:41:41;99766.59;;;24.08;42.32
8637;BME280;4356;49.068;8.658;2023-07-31T06:44:08;99767.44;;;24.08;42.30
8637;BME280;4356;49.068;8.658;2023-07-31T06:46:34;99769.94;;;24.10;42.24
8637;BME280;4356;49.068;8.658;2023-07-31T06:48:59;99757.84;;;24.06;42.35
8637;BME280;4356;49.068;8.658;2023-07-31T06:51:25;99758.94;;;24.10;42.31
8637;BME280;4356;49.068;8.658;2023-07-31T06:53:50;99754.56;;;24.09;42.23
8637;BME280;4356;49.068;8.658;2023-07-31T06:56:15;99752.84;;;24.03;42.42
8637;BME280;4356;49.068;8.658;2023-07-31T06:58:41;99757.78;;;24.01;42.19
8637;BME280;4356;49.068;8.658;2023-07-31T07:01:07;99749.47;;;23.96;41.84
8637;BME280;4356;49.068;8.658;2023-07-31T07:03:32;99755.47;;;23.93;42.41
8637;BME280;4356;49.068;8.658;2023-07-31T07:05:58;99730.38;;;23.79;42.07
8637;BME280;4356;49.068;8.658;2023-07-31T07:08:24;99747.72;;;23.85;42.14
8637;BME280;4356;49.068;8.658;2023-07-31T07:10:49;99745.50;;;23.82;41.99
8637;BME280;4356;49.068;8.658;2023-07-31T07:13:15;99752.59;;;23.78;41.94
8637;BME280;4356;49.068;8.658;2023-07-31T07:15:40;99753.69;;;23.77;42.00
8637;BME280;4356;49.068;8.658;2023-07-31T07:18:05;99744.31;;;23.73;41.78
8637;BME280;4356;49.068;8.658;2023-07-31T07:20:31;99731.38;;;23.68;41.83
8637;BME280;4356;49.068;8.658;2023-07-31T07:22:56;99739.09;;;23.71;42.00
8637;BME280;4356;49.068;8.658;2023-07-31T07:25:21;99740.97;;;23.66;41.67
8637;BME280;4356;49.068;8.658;2023-07-31T07:27:47;99730.78;;;23.66;42.09
8637;BME280;4356;49.068;8.658;2023-07-31T07:30:12;99748.94;;;23.67;42.12
8637;BME280;4356;49.068;8.658;2023-07-31T07:32:39;99744.50;;;23.66;42.15
8637;BME280;4356;49.068;8.658;2023-07-31T07:35:05;99748.09;;;23.67;42.38
8637;BME280;4356;49.068;8.658;2023-07-31T07:37:30;99749.47;;;23.64;41.84
8637;BME280;4356;49.068;8.658;2023-07-31T07:39:56;99742.28;;;23.63;42.14
8637;BME280;4356;49.068;8.658;2023-07-31T07:42:22;99739.56;;;23.63;42.07
8637;BME280;4356;49.068;8.658;2023-07-31T07:44:48;99741.72;;;23.61;42.21
8637;BME280;4356;49.068;8.658;2023-07-31T07:47:13;99735.44;;;23.61;42.25
8637;BME280;4356;49.068;8.658;2023-07-31T07:49:39;99735.44;;;23.61;41.99
8637;BME280;4356;49.068;8.658;2023-07-31T07:52:04;99727.69;;;23.58;42.42
8637;BME280;4356;49.068;8.658;2023-07-31T07:54:30;99731.84;;;23.60;42.53
8637;BME280;4356;49.068;8.658;2023-07-31T07:56:56;99727.69;;;23.58;42.34
8637;BME280;4356;49.068;8.658;2023-07-31T07:59:21;99720.56;;;23.57;42.53
8637;BME280;4356;49.068;8.658;2023-07-31T08:01:47;99727.69;;;23.58;42.50
8637;BME280;4356;49.068;8.658;2023-07-31T08:04:12;99720.63;;;23.62;42.52
8637;BME280;4356;49.068;8.658;2023-07-31T08:06:40;99720.03;;;23.60;42.51
8637;BME280;4356;49.068;8.658;2023-07-31T08:09:05;99715.13;;;23.62;42.37
8637;BME280;4356;49.068;8.658;2023-07-31T08:11:34;99733.00;;;23.64;42.44
8637;BME280;4356;49.068;8.658;2023-07-31T08:14:00;99735.75;;;23.64;42.50
8637;BME280;4356;49.068;8.658;2023-07-31T08:16:25;99731.59;;;23.62;42.38
8637;BME280;4356;49.068;8.658;2023-07-31T08:18:50;99721.94;;;23.59;42.47
8637;BME280;4356;49.068;8.658;2023-07-31T08:21:16;99735.22;;;23.67;42.33
8637;BME280;4356;49.068;8.658;2023-07-31T08:23:41;99723.41;;;23.67;42.47
8637;BME280;4356;49.068;8.658;2023-07-31T08:26:06;99714.34;;;23.66;42.46
8637;BME280;4356;49.068;8.658;2023-07-31T08:28:32;99707.16;;;23.60;42.24
8637;BME280;4356;49.068;8.658;2023-07-31T08:30:58;99712.44;;;23.67;42.28
8637;BME280;4356;49.068;8.658;2023-07-31T08:33:23;99714.91;;;23.68;42.38
8637;BME280;4356;49.068;8.658;2023-07-31T08:35:48;99714.13;;;23.73;42.17
8637;BME280;4356;49.068;8.658;2023-07-31T08:38:14;99709.41;;;23.68;42.31
8637;BME280;4356;49.068;8.658;2023-07-31T08:40:39;99716.88;;;23.73;42.30
8637;BME280;4356;49.068;8.658;2023-07-31T08:43:05;99721.00;;;23.75;42.19
8637;BME280;4356;49.068;8.658;2023-07-31T08:45:32;99703.16;;;23.73;42.30
8637;BME280;4356;49.068;8.658;2023-07-31T08:47:58;99712.28;;;23.78;42.33
8637;BME280;4356;49.068;8.658;2023-07-31T08:50:24;99700.75;;;23.81;42.08
8637;BME280;4356;49.068;8.658;2023-07-31T08:52:51;99688.19;;;23.85;42.20
8637;BME280;4356;49.068;8.658;2023-07-31T08:55:17;99697.53;;;23.89;42.33
8637;BME280;4356;49.068;8.658;2023-07-31T08:57:42;99690.19;;;23.95;42.03
8637;BME280;4356;49.068;8.658;2023-07-31T09:00:10;99694.88;;;23.99;42.04
8637;BME280;4356;49.068;8.658;2023-07-31T09:05:23;99685.91;;;24.09;41.99
8637;BME280;4356;49.068;8.658;2023-07-31T09:07:49;99680.16;;;24.10;42.02
8637;BME280;4356;49.068;8.658;2023-07-31T09:10:15;99691.47;;;24.19;41.87
8637;BME280;4356;49.068;8.658;2023-07-31T09:12:41;99681.06;;;24.21;41.69
8637;BME280;4356;49.068;8.658;2023-07-31T09:15:07;99666.53;;;24.25;41.84
8637;BME280;4356;49.068;8.658;2023-07-31T09:17:35;99669.88;;;24.32;41.71
8637;BME280;4356;49.068;8.658;2023-07-31T09:20:27;99662.78;;;24.36;41.71
8637;BME280;4356;49.068;8.658;2023-07-31T09:22:54;99661.13;;;24.40;41.58
8637;BME280;4356;49.068;8.658;2023-07-31T09:25:21;99654.00;;;24.44;41.62
8637;BME280;4356;49.068;8.658;2023-07-31T09:27:50;99647.44;;;24.51;41.74
8637;BME280;4356;49.068;8.658;2023-07-31T09:30:17;99653.50;;;24.53;41.60
8637;BME280;4356;49.068;8.658;2023-07-31T09:32:47;99642.81;;;24.56;41.65
8637;BME280;4356;49.068;8.658;2023-07-31T09:35:31;99644.50;;;24.62;41.40
8637;BME280;4356;49.068;8.658;2023-07-31T09:37:59;99650.00;;;24.67;41.42
8637;BME280;4356;49.068;8.658;2023-07-31T09:42:51;99649.78;;;24.74;41.53
8637;BME280;4356;49.068;8.658;2023-07-31T09:45:18;99642.66;;;24.78;41.23
8637;BME280;4356;49.068;8.658;2023-07-31T09:47:47;99641.31;;;24.85;41.13
8637;BME280;4356;49.068;8.658;2023-07-31T09:50:15;99646.00;;;24.90;41.15
8637;BME280;4356;49.068;8.658;2023-07-31T09:52:41;99624.00;;;24.90;40.89
8637;BME280;4356;49.068;8.658;2023-07-31T09:55:09;99645.47;;;24.98;41.05
8637;BME280;4356;49.068;8.658;2023-07-31T09:57:40;99635.31;;;24.98;41.17
8637;BME280;4356;49.068;8.658;2023-07-31T10:00:06;99632.28;;;25.05;40.89
8637;BME280;4356;49.068;8.658;2023-07-31T10:02:34;99627.91;;;25.09;41.15
8637;BME280;4356;49.068;8.658;2023-07-31T10:05:03;99630.38;;;25.15;40.90
8637;BME280;4356;49.068;8.658;2023-07-31T10:07:30;99630.16;;;25.22;40.98
8637;BME280;4356;49.068;8.658;2023-07-31T10:09:57;99623.53;;;25.23;41.08
8637;BME280;4356;49.068;8.658;2023-07-31T10:12:26;99625.19;;;25.29;40.82
8637;BME280;4356;49.068;8.658;2023-07-31T10:14:54;99617.50;;;25.31;40.49
8637;BME280;4356;49.068;8.658;2023-07-31T10:17:22;99619.69;;;25.34;40.77
8637;BME280;4356;49.068;8.658;2023-07-31T10:19:49;99622.44;;;25.34;40.42
8637;BME280;4356;49.068;8.658;2023-07-31T10:22:15;99626.34;;;25.38;40.47
8637;BME280;4356;49.068;8.658;2023-07-31T10:24:42;99626.91;;;25.40;40.69
8637;BME280;4356;49.068;8.658;2023-07-31T10:27:08;99624.94;;;25.40;40.60
8637;BME280;4356;49.068;8.658;2023-07-31T10:29:35;99634.88;;;25.41;40.48
8637;BME280;4356;49.068;8.658;2023-07-31T10:32:02;99627.69;;;25.40;40.49
8637;BME280;4356;49.068;8.658;2023-07-31T10:34:33;99646.94;;;25.45;40.61
8637;BME280;4356;49.068;8.658;2023-07-31T10:40:11;99628.53;;;25.51;40.22
8637;BME280;4356;49.068;8.658;2023-07-31T10:42:48;99628.81;;;25.50;40.40
8637;BME280;4356;49.068;8.658;2023-07-31T10:45:14;99635.69;;;25.52;40.07
8637;BME280;4356;49.068;8.658;2023-07-31T10:47:48;99620.81;;;25.53;40.18
8637;BME280;4356;49.068;8.658;2023-07-31T10:50:19;99627.44;;;25.52;40.24
8637;BME280;4356;49.068;8.658;2023-07-31T10:52:49;99622.50;;;25.49;39.94
8637;BME280;4356;49.068;8.658;2023-07-31T10:55:24;99614.53;;;25.53;40.11
8637;BME280;4356;49.068;8.658;2023-07-31T10:58:08;99619.47;;;25.56;40.20
8637;BME280;4356;49.068;8.658;2023-07-31T11:00:34;99602.69;;;25.52;40.13
8637;BME280;4356;49.068;8.658;2023-07-31T11:03:13;99608.19;;;25.57;39.99
8637;BME280;4356;49.068;8.658;2023-07-31T11:08:14;99608.44;;;25.61;39.89
8637;BME280;4356;49.068;8.658;2023-07-31T11:10:40;99609.28;;;25.61;40.11
8637;BME280;4356;49.068;8.658;2023-07-31T11:13:05;99593.06;;;25.60;39.86
8637;BME280;4356;49.068;8.658;2023-07-31T11:15:31;99591.09;;;25.60;39.84
8637;BME280;4356;49.068;8.658;2023-07-31T11:17:56;99592.50;;;25.63;40.01
8637;BME280;4356;49.068;8.658;2023-07-31T11:20:25;99578.19;;;25.61;40.03
8637;BME280;4356;49.068;8.658;2023-07-31T11:22:50;99581.75;;;25.61;40.04
8637;BME280;4356;49.068;8.658;2023-07-31T11:25:16;99582.59;;;25.67;40.19
8637;BME280;4356;49.068;8.658;2023-07-31T11:27:41;99575.16;;;25.67;39.82
8637;BME280;4356;49.068;8.658;2023-07-31T11:30:09;99570.75;;;25.66;39.79
8637;BME280;4356;49.068;8.658;2023-07-31T11:32:36;99565.78;;;25.68;39.75
8637;BME280;4356;49.068;8.658;2023-07-31T11:35:02;99555.34;;;25.70;39.92
8637;BME280;4356;49.068;8.658;2023-07-31T11:37:39;99559.47;;;25.73;39.97
8637;BME280;4356;49.068;8.658;2023-07-31T11:40:06;99573.22;;;25.73;39.71
8637;BME280;4356;49.068;8.658;2023-07-31T11:42:31;99577.34;;;25.75;40.03
8637;BME280;4356;49.068;8.658;2023-07-31T11:44:57;99559.19;;;25.74;39.74
8637;BME280;4356;49.068;8.658;2023-07-31T11:47:22;99559.47;;;25.78;40.05
8637;BME280;4356;49.068;8.658;2023-07-31T11:49:48;99564.41;;;25.81;39.59
8637;BME280;4356;49.068;8.658;2023-07-31T11:52:14;99561.94;;;25.79;39.76
8637;BME280;4356;49.068;8.658;2023-07-31T11:54:40;99548.16;;;25.79;39.51
8637;BME280;4356;49.068;8.658;2023-07-31T11:57:06;99555.31;;;25.80;39.75
8637;BME280;4356;49.068;8.658;2023-07-31T11:59:32;99547.03;;;25.80;39.70
8637;BME280;4356;49.068;8.658;2023-07-31T12:01:57;99548.72;;;25.81;39.59
8637;BME280;4356;49.068;8.658;2023-07-31T12:04:23;99562.75;;;25.85;39.64
8637;BME280;4356;49.068;8.658;2023-07-31T12:06:49;99545.41;;;25.84;39.46
8637;BME280;4356;49.068;8.658;2023-07-31T12:09:15;99548.41;;;25.88;39.64
8637;BME280;4356;49.068;8.658;2023-07-31T12:11:47;99538.25;;;25.83;39.48
8637;BME280;4356;49.068;8.658;2023-07-31T12:14:26;99542.63;;;25.89;39.56
8637;BME280;4356;49.068;8.658;2023-07-31T12:16:55;99532.72;;;25.88;39.41
8637;BME280;4356;49.068;8.658;2023-07-31T12:19:21;99530.53;;;25.90;39.49
8637;BME280;4356;49.068;8.658;2023-07-31T12:21:47;99523.63;;;25.88;39.45
8637;BME280;4356;49.068;8.658;2023-07-31T12:24:13;99523.34;;;25.89;39.55
8637;BME280;4356;49.068;8.658;2023-07-31T12:26:38;99524.16;;;25.95;39.54
8637;BME280;4356;49.068;8.658;2023-07-31T12:29:07;99507.38;;;25.91;39.47
8637;BME280;4356;49.068;8.658;2023-07-31T12:31:33;99513.41;;;25.98;39.61
8637;BME280;4356;49.068;8.658;2023-07-31T12:33:59;99516.19;;;25.93;39.61
8637;BME280;4356;49.068;8.658;2023-07-31T12:36:24;99526.09;;;26.04;39.74
8637;BME280;4356;49.068;8.658;2023-07-31T12:38:51;99517.81;;;26.09;39.65
8637;BME280;4356;49.068;8.658;2023-07-31T12:41:16;99511.22;;;26.10;39.46
8637;BME280;4356;49.068;8.658;2023-07-31T12:43:43;99498.53;;;26.09;39.59
8637;BME280;4356;49.068;8.658;2023-07-31T12:46:09;99500.47;;;26.14;39.64
8637;BME280;4356;49.068;8.658;2023-07-31T12:48:35;99479.00;;;26.06;39.52
8637;BME280;4356;49.068;8.658;2023-07-31T12:51:01;99496.28;;;26.16;39.71
8637;BME280;4356;49.068;8.658;2023-07-31T12:53:27;99489.97;;;26.11;39.49
8637;BME280;4356;49.068;8.658;2023-07-31T12:55:53;99499.06;;;26.21;39.54
8637;BME280;4356;49.068;8.658;2023-07-31T12:58:19;99483.31;;;26.22;39.44
8637;BME280;4356;49.068;8.658;2023-07-31T13:00:44;99469.03;;;26.15;39.45
8637;BME280;4356;49.068;8.658;2023-07-31T13:03:09;99484.41;;;26.26;39.39
8637;BME280;4356;49.068;8.658;2023-07-31T13:05:36;99460.75;;;26.20;39.34
8637;BME280;4356;49.068;8.658;2023-07-31T13:08:01;99464.84;;;26.27;39.38
8637;BME280;4356;49.068;8.658;2023-07-31T13:10:27;99458.53;;;26.27;39.20
8637;BME280;4356;49.068;8.658;2023-07-31T13:12:54;99451.38;;;26.26;39.52
8637;BME280;4356;49.068;8.658;2023-07-31T13:15:19;99458.50;;;26.32;39.26
8637;BME280;4356;49.068;8.658;2023-07-31T13:17:45;99461.81;;;26.34;39.57
8637;BME280;4356;49.068;8.658;2023-07-31T13:20:11;99467.56;;;26.37;39.81
8637;BME280;4356;49.068;8.658;2023-07-31T13:22:36;99458.19;;;26.38;39.79
8637;BME280;4356;49.068;8.658;2023-07-31T13:25:02;99452.66;;;26.38;39.93
8637;BME280;4356;49.068;8.658;2023-07-31T13:27:28;99458.13;;;26.43;39.58
8637;BME280;4356;49.068;8.658;2023-07-31T13:29:54;99451.25;;;26.46;39.54
8637;BME280;4356;49.068;8.658;2023-07-31T13:32:20;99454.56;;;26.48;39.48
8637;BME280;4356;49.068;8.658;2023-07-31T13:34:47;99455.38;;;26.49;39.41
8637;BME280;4356;49.068;8.658;2023-07-31T13:37:13;99456.44;;;26.53;39.53